sensor_id;sensor_type;location;lat;lon;timestamp;P1;durP1;ratioP1;P2;durP2;ratioP2
5674;SDS011;2860;54.284;10.158;2022-11-18T00:00:43;15.23;;;13.05;;
5674;SDS011;2860;54.284;10.158;2022-11-18T00:03:09;16.13;;;13.48;;
5674;SDS011;2860;54.284;10.158;2022-11-18T00:05:34;15.02;;;13.43;;
5674;SDS011;2860;54.284;10.158;2022-11-18T00:08:00;19.65;;;14.10;;
5674;SDS011;2860;54.284;10.158;2022-11-18T00:10:25;21.65;;;13.35;;
5674;SDS011;2860;54.284;10.158;2022-11-18T00:12:51;19.33;;;14.40;;
5674;SDS011;2860;54.284;10.158;2022-11-18T00:15:35;20.35;;;14.95;;
5674;SDS011;2860;54.284;10.158;2022-11-18T00:18:00;23.58;;;15.40;;
5674;SDS011;2860;54.284;10.158;2022-11-18T00:20:26;21.73;;;15.00;;
5674;SDS011;2860;54.284;10.158;2022-11-18T00:22:51;20.58;;;14.45;;
5674;SDS011;2860;54.284;10.158;2022-11-18T00:25:17;24.80;;;16.60;;
5674;SDS011;2860;54.284;10.158;2022-11-18T00:27:42;26.08;;;18.85;;
5674;SDS011;2860;54.284;10.158;2022-11-18T00:30:08;27.88;;;16.70;;
5674;SDS011;2860;54.284;10.158;2022-11-18T00:32:34;22.80;;;16.23;;
5674;SDS011;2860;54.284;10.158;2022-11-18T00:35:00;29.70;;;18.65;;
5674;SDS011;2860;54.284;10.158;2022-11-18T00:37:25;28.70;;;18.75;;
5674;SDS011;2860;54.284;10.158;2022-11-18T00:39:51;24.65;;;17.08;;
5674;SDS011;2860;54.284;10.158;2022-11-18T00:42:16;30.48;;;19.75;;
5674;SDS011;2860;54.284;10.158;2022-11-18T00:45:00;28.63;;;20.42;;
5674;SDS011;2860;54.284;10.158;2022-11-18T00:47:26;28.25;;;18.58;;
5674;SDS011;2860;54.284;10.158;2022-11-18T00:49:51;28.75;;;18.25;;
5674;SDS011;2860;54.284;10.158;2022-11-18T00:52:17;34.33;;;21.38;;
5674;SDS011;2860;54.284;10.158;2022-11-18T00:54:42;33.58;;;21.75;;
5674;SDS011;2860;54.284;10.158;2022-11-18T00:57:08;35.35;;;21.45;;
5674;SDS011;2860;54.284;10.158;2022-11-18T00:59:33;37.95;;;21.60;;
5674;SDS011;2860;54.284;10.158;2022-11-18T01:01:59;32.15;;;20.52;;
5674;SDS011;2860;54.284;10.158;2022-11-18T01:04:24;36.13;;;21.08;;
5674;SDS011;2860;54.284;10.158;2022-11-18T01:06:50;36.20;;;21.02;;
5674;SDS011;2860;54.284;10.158;2022-11-18T01:09:15;37.70;;;22.02;;
5674;SDS011;2860;54.284;10.158;2022-11-18T01:11:41;36.88;;;21.52;;
5674;SDS011;2860;54.284;10.158;2022-11-18T01:14:25;33.58;;;20.75;;
5674;SDS011;2860;54.284;10.158;2022-11-18T01:16:54;35.55;;;19.60;;
5674;SDS011;2860;54.284;10.158;2022-11-18T01:19:20;32.72;;;21.23;;
5674;SDS011;2860;54.284;10.158;2022-11-18T01:21:46;34.08;;;20.23;;
5674;SDS011;2860;54.284;10.158;2022-11-18T01:24:12;36.70;;;22.27;;
5674;SDS011;2860;54.284;10.158;2022-11-18T01:26:37;33.05;;;21.00;;
5674;SDS011;2860;54.284;10.158;2022-11-18T01:29:03;24.77;;;16.05;;
5674;SDS011;2860;54.284;10.158;2022-11-18T01:31:28;31.20;;;19.92;;
5674;SDS011;2860;54.284;10.158;2022-11-18T01:33:54;35.25;;;21.50;;
5674;SDS011;2860;54.284;10.158;2022-11-18T01:36:24;32.45;;;19.70;;
5674;SDS011;2860;54.284;10.158;2022-11-18T01:38:54;33.55;;;21.00;;
5674;SDS011;2860;54.284;10.158;2022-11-18T01:41:20;36.78;;;22.40;;
5674;SDS011;2860;54.284;10.158;2022-11-18T01:43:49;35.05;;;21.98;;
5674;SDS011;2860;54.284;10.158;2022-11-18T01:46:20;39.00;;;23.58;;
5674;SDS011;2860;54.284;10.158;2022-11-18T01:51:30;35.75;;;21.55;;
5674;SDS011;2860;54.284;10.158;2022-11-18T01:53:59;42.33;;;23.98;;
5674;SDS011;2860;54.284;10.158;2022-11-18T01:56:41;39.10;;;21.95;;
5674;SDS011;2860;54.284;10.158;2022-11-18T01:59:12;38.67;;;21.80;;
5674;SDS011;2860;54.284;10.158;2022-11-18T02:01:41;32.80;;;18.95;;
5674;SDS011;2860;54.284;10.158;2022-11-18T02:04:07;32.67;;;20.05;;
5674;SDS011;2860;54.284;10.158;2022-11-18T02:06:34;30.52;;;19.17;;
5674;SDS011;2860;54.284;10.158;2022-11-18T02:09:01;33.88;;;21.63;;
5674;SDS011;2860;54.284;10.158;2022-11-18T02:11:27;32.38;;;20.02;;
5674;SDS011;2860;54.284;10.158;2022-11-18T02:14:12;31.10;;;20.08;;
5674;SDS011;2860;54.284;10.158;2022-11-18T02:22:04;27.75;;;17.15;;
5674;SDS011;2860;54.284;10.158;2022-11-18T02:30:23;27.05;;;16.48;;
5674;SDS011;2860;54.284;10.158;2022-11-18T02:32:56;28.90;;;18.80;;
5674;SDS011;2860;54.284;10.158;2022-11-18T02:35:41;14.13;;;9.50;;
5674;SDS011;2860;54.284;10.158;2022-11-18T02:38:18;29.00;;;17.38;;
5674;SDS011;2860;54.284;10.158;2022-11-18T02:41:12;23.35;;;15.93;;
5674;SDS011;2860;54.284;10.158;2022-11-18T02:43:48;25.38;;;17.13;;
5674;SDS011;2860;54.284;10.158;2022-11-18T02:46:23;24.58;;;16.67;;
5674;SDS011;2860;54.284;10.158;2022-11-18T02:48:55;27.90;;;18.02;;
5674;SDS011;2860;54.284;10.158;2022-11-18T02:51:22;19.60;;;13.18;;
5674;SDS011;2860;54.284;10.158;2022-11-18T02:53:51;23.20;;;16.65;;
5674;SDS011;2860;54.284;10.158;2022-11-18T02:56:19;23.38;;;15.55;;
5674;SDS011;2860;54.284;10.158;2022-11-18T02:58:45;23.77;;;16.55;;
5674;SDS011;2860;54.284;10.158;2022-11-18T03:01:18;23.98;;;16.33;;
5674;SDS011;2860;54.284;10.158;2022-11-18T03:03:46;20.02;;;14.02;;
5674;SDS011;2860;54.284;10.158;2022-11-18T03:09:05;22.95;;;16.25;;
5674;SDS011;2860;54.284;10.158;2022-11-18T03:11:39;26.83;;;17.17;;
5674;SDS011;2860;54.284;10.158;2022-11-18T03:19:19;21.77;;;15.00;;
5674;SDS011;2860;54.284;10.158;2022-11-18T03:22:02;15.73;;;11.60;;
5674;SDS011;2860;54.284;10.158;2022-11-18T03:24:37;23.45;;;15.75;;
5674;SDS011;2860;54.284;10.158;2022-11-18T03:27:09;26.30;;;16.25;;
5674;SDS011;2860;54.284;10.158;2022-11-18T03:29:53;23.10;;;16.30;;
5674;SDS011;2860;54.284;10.158;2022-11-18T03:32:23;18.48;;;13.88;;
5674;SDS011;2860;54.284;10.158;2022-11-18T03:34:54;18.98;;;14.73;;
5674;SDS011;2860;54.284;10.158;2022-11-18T03:37:24;16.42;;;12.68;;
5674;SDS011;2860;54.284;10.158;2022-11-18T03:39:52;23.95;;;14.55;;
5674;SDS011;2860;54.284;10.158;2022-11-18T03:42:22;15.40;;;11.25;;
5674;SDS011;2860;54.284;10.158;2022-11-18T03:45:01;18.67;;;13.88;;
5674;SDS011;2860;54.284;10.158;2022-11-18T03:47:32;18.27;;;13.30;;
5674;SDS011;2860;54.284;10.158;2022-11-18T03:50:10;18.02;;;12.68;;
5674;SDS011;2860;54.284;10.158;2022-11-18T03:52:40;16.70;;;13.48;;
5674;SDS011;2860;54.284;10.158;2022-11-18T03:55:12;17.10;;;13.88;;
5674;SDS011;2860;54.284;10.158;2022-11-18T03:57:45;15.88;;;11.20;;
5674;SDS011;2860;54.284;10.158;2022-11-18T04:00:37;21.48;;;13.43;;
5674;SDS011;2860;54.284;10.158;2022-11-18T04:03:06;18.77;;;13.63;;
5674;SDS011;2860;54.284;10.158;2022-11-18T04:05:32;15.93;;;12.45;;
5674;SDS011;2860;54.284;10.158;2022-11-18T04:08:03;18.35;;;13.68;;
5674;SDS011;2860;54.284;10.158;2022-11-18T04:10:34;13.60;;;10.18;;
5674;SDS011;2860;54.284;10.158;2022-11-18T04:13:15;17.25;;;13.23;;
5674;SDS011;2860;54.284;10.158;2022-11-18T04:15:53;15.45;;;11.98;;
5674;SDS011;2860;54.284;10.158;2022-11-18T04:18:19;19.58;;;13.15;;
5674;SDS011;2860;54.284;10.158;2022-11-18T04:20:44;16.92;;;11.35;;
5674;SDS011;2860;54.284;10.158;2022-11-18T04:23:10;14.85;;;11.27;;
5674;SDS011;2860;54.284;10.158;2022-11-18T04:25:35;17.55;;;10.60;;
5674;SDS011;2860;54.284;10.158;2022-11-18T04:28:01;12.80;;;10.30;;
5674;SDS011;2860;54.284;10.158;2022-11-18T04:30:27;16.17;;;12.13;;
5674;SDS011;2860;54.284;10.158;2022-11-18T04:32:53;16.45;;;11.57;;
5674;SDS011;2860;54.284;10.158;2022-11-18T04:35:19;17.05;;;11.60;;
5674;SDS011;2860;54.284;10.158;2022-11-18T04:37:44;15.55;;;10.40;;
5674;SDS011;2860;54.284;10.158;2022-11-18T04:40:10;15.43;;;11.80;;
5674;SDS011;2860;54.284;10.158;2022-11-18T04:42:35;12.27;;;10.38;;
5674;SDS011;2860;54.284;10.158;2022-11-18T04:45:02;12.23;;;9.73;;
5674;SDS011;2860;54.284;10.158;2022-11-18T04:47:28;12.00;;;9.52;;
5674;SDS011;2860;54.284;10.158;2022-11-18T04:49:53;11.85;;;9.07;;
5674;SDS011;2860;54.284;10.158;2022-11-18T04:52:19;12.68;;;10.00;;
5674;SDS011;2860;54.284;10.158;2022-11-18T04:54:45;12.25;;;9.45;;
5674;SDS011;2860;54.284;10.158;2022-11-18T04:57:10;9.18;;;8.27;;
5674;SDS011;2860;54.284;10.158;2022-11-18T04:59:36;12.95;;;9.13;;
5674;SDS011;2860;54.284;10.158;2022-11-18T05:02:02;12.45;;;9.50;;
5674;SDS011;2860;54.284;10.158;2022-11-18T05:04:29;11.02;;;8.55;;
5674;SDS011;2860;54.284;10.158;2022-11-18T05:06:57;11.35;;;9.80;;
5674;SDS011;2860;54.284;10.158;2022-11-18T05:09:23;9.70;;;8.80;;
5674;SDS011;2860;54.284;10.158;2022-11-18T05:11:50;8.57;;;7.55;;
5674;SDS011;2860;54.284;10.158;2022-11-18T05:14:34;10.10;;;9.10;;
5674;SDS011;2860;54.284;10.158;2022-11-18T05:17:01;7.78;;;7.07;;
5674;SDS011;2860;54.284;10.158;2022-11-18T05:19:27;10.00;;;7.18;;
5674;SDS011;2860;54.284;10.158;2022-11-18T05:21:53;9.73;;;8.38;;
5674;SDS011;2860;54.284;10.158;2022-11-18T05:24:19;10.13;;;8.77;;
5674;SDS011;2860;54.284;10.158;2022-11-18T05:26:44;9.70;;;8.68;;
5674;SDS011;2860;54.284;10.158;2022-11-18T05:29:10;9.38;;;8.43;;
5674;SDS011;2860;54.284;10.158;2022-11-18T05:31:36;8.38;;;7.63;;
5674;SDS011;2860;54.284;10.158;2022-11-18T05:34:02;10.73;;;7.80;;
5674;SDS011;2860;54.284;10.158;2022-11-18T05:36:28;9.65;;;8.30;;
5674;SDS011;2860;54.284;10.158;2022-11-18T05:38:53;10.15;;;7.72;;
5674;SDS011;2860;54.284;10.158;2022-11-18T05:41:22;6.28;;;5.63;;
5674;SDS011;2860;54.284;10.158;2022-11-18T05:44:06;7.55;;;6.85;;
5674;SDS011;2860;54.284;10.158;2022-11-18T05:46:32;9.63;;;8.52;;
5674;SDS011;2860;54.284;10.158;2022-11-18T05:48:57;8.73;;;7.88;;
5674;SDS011;2860;54.284;10.158;2022-11-18T05:51:23;9.45;;;7.97;;
5674;SDS011;2860;54.284;10.158;2022-11-18T05:53:49;9.40;;;7.70;;
5674;SDS011;2860;54.284;10.158;2022-11-18T05:56:19;11.30;;;9.20;;
5674;SDS011;2860;54.284;10.158;2022-11-18T05:58:51;11.43;;;7.93;;
5674;SDS011;2860;54.284;10.158;2022-11-18T06:01:28;8.90;;;7.70;;
5674;SDS011;2860;54.284;10.158;2022-11-18T06:03:55;11.25;;;7.75;;
5674;SDS011;2860;54.284;10.158;2022-11-18T06:06:21;7.70;;;5.90;;
5674;SDS011;2860;54.284;10.158;2022-11-18T06:08:50;8.88;;;7.72;;
5674;SDS011;2860;54.284;10.158;2022-11-18T06:11:26;8.45;;;7.72;;
5674;SDS011;2860;54.284;10.158;2022-11-18T06:13:56;10.32;;;7.88;;
5674;SDS011;2860;54.284;10.158;2022-11-18T06:16:29;7.57;;;6.80;;
5674;SDS011;2860;54.284;10.158;2022-11-18T06:18:57;6.07;;;5.57;;
5674;SDS011;2860;54.284;10.158;2022-11-18T06:21:23;8.13;;;6.90;;
5674;SDS011;2860;54.284;10.158;2022-11-18T06:23:49;7.82;;;7.03;;
5674;SDS011;2860;54.284;10.158;2022-11-18T06:26:15;7.35;;;6.65;;
5674;SDS011;2860;54.284;10.158;2022-11-18T06:28:42;8.40;;;7.60;;
5674;SDS011;2860;54.284;10.158;2022-11-18T06:31:10;7.80;;;7.05;;
5674;SDS011;2860;54.284;10.158;2022-11-18T06:33:35;10.70;;;9.05;;
5674;SDS011;2860;54.284;10.158;2022-11-18T06:36:01;6.80;;;6.13;;
5674;SDS011;2860;54.284;10.158;2022-11-18T06:38:27;9.90;;;7.80;;
5674;SDS011;2860;54.284;10.158;2022-11-18T06:40:52;8.77;;;7.78;;
5674;SDS011;2860;54.284;10.158;2022-11-18T06:43:18;8.05;;;6.68;;
5674;SDS011;2860;54.284;10.158;2022-11-18T06:46:02;9.40;;;7.60;;
5674;SDS011;2860;54.284;10.158;2022-11-18T06:48:48;10.40;;;7.97;;
5674;SDS011;2860;54.284;10.158;2022-11-18T06:51:13;14.32;;;7.97;;
5674;SDS011;2860;54.284;10.158;2022-11-18T06:53:39;6.80;;;6.13;;
5674;SDS011;2860;54.284;10.158;2022-11-18T06:56:07;7.85;;;7.13;;
5674;SDS011;2860;54.284;10.158;2022-11-18T06:58:34;6.35;;;5.85;;
5674;SDS011;2860;54.284;10.158;2022-11-18T07:01:13;10.37;;;7.10;;
5674;SDS011;2860;54.284;10.158;2022-11-18T07:03:45;9.75;;;7.90;;
5674;SDS011;2860;54.284;10.158;2022-11-18T07:06:12;10.27;;;8.38;;
5674;SDS011;2860;54.284;10.158;2022-11-18T07:08:41;8.38;;;7.03;;
5674;SDS011;2860;54.284;10.158;2022-11-18T07:11:08;10.90;;;8.63;;
5674;SDS011;2860;54.284;10.158;2022-11-18T07:13:36;9.13;;;6.70;;
5674;SDS011;2860;54.284;10.158;2022-11-18T07:16:03;7.18;;;6.65;;
5674;SDS011;2860;54.284;10.158;2022-11-18T07:18:43;6.72;;;5.53;;
5674;SDS011;2860;54.284;10.158;2022-11-18T07:21:11;13.25;;;8.45;;
5674;SDS011;2860;54.284;10.158;2022-11-18T07:23:41;10.50;;;7.45;;
5674;SDS011;2860;54.284;10.158;2022-11-18T07:26:07;12.20;;;9.80;;
5674;SDS011;2860;54.284;10.158;2022-11-18T07:28:33;9.00;;;7.22;;
5674;SDS011;2860;54.284;10.158;2022-11-18T07:33:30;14.60;;;9.60;;
5674;SDS011;2860;54.284;10.158;2022-11-18T07:36:00;10.85;;;9.10;;
5674;SDS011;2860;54.284;10.158;2022-11-18T07:38:27;12.95;;;8.10;;
5674;SDS011;2860;54.284;10.158;2022-11-18T07:40:53;8.35;;;7.43;;
5674;SDS011;2860;54.284;10.158;2022-11-18T07:43:18;12.88;;;9.38;;
5674;SDS011;2860;54.284;10.158;2022-11-18T07:45:44;11.50;;;9.80;;
5674;SDS011;2860;54.284;10.158;2022-11-18T07:48:09;11.95;;;9.18;;
5674;SDS011;2860;54.284;10.158;2022-11-18T07:50:35;12.20;;;8.80;;
5674;SDS011;2860;54.284;10.158;2022-11-18T07:53:00;10.18;;;8.15;;
5674;SDS011;2860;54.284;10.158;2022-11-18T07:55:26;7.10;;;6.43;;
5674;SDS011;2860;54.284;10.158;2022-11-18T07:57:51;9.57;;;8.50;;
5674;SDS011;2860;54.284;10.158;2022-11-18T08:00:19;8.00;;;7.28;;
5674;SDS011;2860;54.284;10.158;2022-11-18T08:02:48;8.68;;;7.82;;
5674;SDS011;2860;54.284;10.158;2022-11-18T08:05:14;6.25;;;5.65;;
5674;SDS011;2860;54.284;10.158;2022-11-18T08:07:39;8.07;;;7.18;;
5674;SDS011;2860;54.284;10.158;2022-11-18T08:10:05;9.35;;;8.00;;
5674;SDS011;2860;54.284;10.158;2022-11-18T08:12:31;8.55;;;7.05;;
5674;SDS011;2860;54.284;10.158;2022-11-18T08:14:56;5.63;;;5.13;;
5674;SDS011;2860;54.284;10.158;2022-11-18T08:17:22;7.20;;;5.72;;
5674;SDS011;2860;54.284;10.158;2022-11-18T08:19:47;7.85;;;7.13;;
5674;SDS011;2860;54.284;10.158;2022-11-18T08:22:13;5.78;;;5.22;;
5674;SDS011;2860;54.284;10.158;2022-11-18T08:24:40;6.80;;;6.20;;
5674;SDS011;2860;54.284;10.158;2022-11-18T08:27:06;8.68;;;6.18;;
5674;SDS011;2860;54.284;10.158;2022-11-18T08:29:32;6.65;;;5.90;;
5674;SDS011;2860;54.284;10.158;2022-11-18T08:31:57;5.05;;;4.65;;
5674;SDS011;2860;54.284;10.158;2022-11-18T08:34:23;7.30;;;6.70;;
5674;SDS011;2860;54.284;10.158;2022-11-18T08:36:48;8.50;;;5.80;;
5674;SDS011;2860;54.284;10.158;2022-11-18T08:39:14;5.95;;;5.45;;
5674;SDS011;2860;54.284;10.158;2022-11-18T08:41:40;6.35;;;5.85;;
5674;SDS011;2860;54.284;10.158;2022-11-18T08:44:09;3.92;;;3.63;;
5674;SDS011;2860;54.284;10.158;2022-11-18T08:46:36;5.18;;;4.78;;
5674;SDS011;2860;54.284;10.158;2022-11-18T08:49:02;5.30;;;5.00;;
5674;SDS011;2860;54.284;10.158;2022-11-18T08:51:28;4.50;;;4.10;;
5674;SDS011;2860;54.284;10.158;2022-11-18T08:53:53;5.10;;;4.80;;
5674;SDS011;2860;54.284;10.158;2022-11-18T08:56:20;3.85;;;3.75;;
5674;SDS011;2860;54.284;10.158;2022-11-18T08:58:47;7.53;;;6.47;;
5674;SDS011;2860;54.284;10.158;2022-11-18T09:01:13;5.68;;;4.45;;
5674;SDS011;2860;54.284;10.158;2022-11-18T09:03:38;6.30;;;5.32;;
5674;SDS011;2860;54.284;10.158;2022-11-18T09:06:08;5.28;;;4.97;;
5674;SDS011;2860;54.284;10.158;2022-11-18T09:08:38;3.47;;;3.35;;
5674;SDS011;2860;54.284;10.158;2022-11-18T09:11:06;5.60;;;5.15;;
5674;SDS011;2860;54.284;10.158;2022-11-18T09:13:35;4.57;;;4.22;;
5674;SDS011;2860;54.284;10.158;2022-11-18T09:16:01;3.83;;;3.67;;
5674;SDS011;2860;54.284;10.158;2022-11-18T09:18:27;3.67;;;3.47;;
5674;SDS011;2860;54.284;10.158;2022-11-18T09:20:57;4.10;;;4.00;;
5674;SDS011;2860;54.284;10.158;2022-11-18T09:23:24;3.55;;;3.45;;
5674;SDS011;2860;54.284;10.158;2022-11-18T09:25:59;3.78;;;2.78;;
5674;SDS011;2860;54.284;10.158;2022-11-18T09:28:26;3.85;;;3.75;;
5674;SDS011;2860;54.284;10.158;2022-11-18T09:30:52;6.88;;;4.43;;
5674;SDS011;2860;54.284;10.158;2022-11-18T09:33:17;3.90;;;3.75;;
5674;SDS011;2860;54.284;10.158;2022-11-18T09:35:43;4.28;;;4.05;;
5674;SDS011;2860;54.284;10.158;2022-11-18T09:38:09;4.40;;;4.25;;
5674;SDS011;2860;54.284;10.158;2022-11-18T09:40:48;3.10;;;3.00;;
5674;SDS011;2860;54.284;10.158;2022-11-18T09:49:35;5.07;;;4.68;;
5674;SDS011;2860;54.284;10.158;2022-11-18T09:54:42;5.53;;;3.60;;
5674;SDS011;2860;54.284;10.158;2022-11-18T09:57:15;3.53;;;3.25;;
5674;SDS011;2860;54.284;10.158;2022-11-18T09:59:43;3.08;;;2.97;;
5674;SDS011;2860;54.284;10.158;2022-11-18T10:04:37;2.60;;;2.50;;
5674;SDS011;2860;54.284;10.158;2022-11-18T10:07:05;3.58;;;3.47;;
5674;SDS011;2860;54.284;10.158;2022-11-18T10:09:40;3.65;;;3.45;;
5674;SDS011;2860;54.284;10.158;2022-11-18T10:14:41;2.83;;;2.72;;
5674;SDS011;2860;54.284;10.158;2022-11-18T10:20:14;3.35;;;3.15;;
5674;SDS011;2860;54.284;10.158;2022-11-18T10:23:08;2.67;;;2.58;;
5674;SDS011;2860;54.284;10.158;2022-11-18T10:25:57;2.92;;;2.83;;
5674;SDS011;2860;54.284;10.158;2022-11-18T10:30:50;3.60;;;3.47;;
5674;SDS011;2860;54.284;10.158;2022-11-18T10:33:26;4.22;;;2.08;;
5674;SDS011;2860;54.284;10.158;2022-11-18T10:36:08;3.40;;;3.20;;
5674;SDS011;2860;54.284;10.158;2022-11-18T10:38:40;2.60;;;2.50;;
5674;SDS011;2860;54.284;10.158;2022-11-18T10:41:08;3.55;;;3.35;;
5674;SDS011;2860;54.284;10.158;2022-11-18T10:46:22;2.38;;;2.25;;
5674;SDS011;2860;54.284;10.158;2022-11-18T10:49:05;2.88;;;1.83;;
5674;SDS011;2860;54.284;10.158;2022-11-18T10:51:41;3.88;;;3.67;;
5674;SDS011;2860;54.284;10.158;2022-11-18T10:54:21;4.05;;;2.83;;
5674;SDS011;2860;54.284;10.158;2022-11-18T10:59:48;2.72;;;2.63;;
5674;SDS011;2860;54.284;10.158;2022-11-18T11:02:23;2.83;;;2.70;;
5674;SDS011;2860;54.284;10.158;2022-11-18T11:04:55;2.53;;;2.50;;
5674;SDS011;2860;54.284;10.158;2022-11-18T11:12:45;3.35;;;3.17;;
5674;SDS011;2860;54.284;10.158;2022-11-18T11:18:28;2.03;;;2.00;;
5674;SDS011;2860;54.284;10.158;2022-11-18T11:23:39;3.25;;;3.15;;
5674;SDS011;2860;54.284;10.158;2022-11-18T11:26:07;2.50;;;2.50;;
5674;SDS011;2860;54.284;10.158;2022-11-18T11:28:47;3.13;;;2.83;;
5674;SDS011;2860;54.284;10.158;2022-11-18T11:31:26;4.43;;;2.50;;
5674;SDS011;2860;54.284;10.158;2022-11-18T11:37:25;3.55;;;3.03;;
5674;SDS011;2860;54.284;10.158;2022-11-18T11:43:23;2.15;;;2.15;;
5674;SDS011;2860;54.284;10.158;2022-11-18T11:51:19;2.38;;;2.20;;
5674;SDS011;2860;54.284;10.158;2022-11-18T11:53:52;2.78;;;2.67;;
5674;SDS011;2860;54.284;10.158;2022-11-18T11:58:54;1.80;;;1.80;;
5674;SDS011;2860;54.284;10.158;2022-11-18T12:04:50;2.47;;;2.38;;
5674;SDS011;2860;54.284;10.158;2022-11-18T12:07:22;1.50;;;1.50;;
5674;SDS011;2860;54.284;10.158;2022-11-18T12:18:56;2.15;;;2.00;;
5674;SDS011;2860;54.284;10.158;2022-11-18T12:32:26;1.25;;;1.25;;
5674;SDS011;2860;54.284;10.158;2022-11-18T12:35:38;1.77;;;1.77;;
5674;SDS011;2860;54.284;10.158;2022-11-18T12:40:40;1.42;;;1.42;;
5674;SDS011;2860;54.284;10.158;2022-11-18T12:48:54;2.33;;;2.33;;
5674;SDS011;2860;54.284;10.158;2022-11-18T12:53:45;4.35;;;1.73;;
5674;SDS011;2860;54.284;10.158;2022-11-18T12:58:49;2.15;;;2.05;;
5674;SDS011;2860;54.284;10.158;2022-11-18T13:01:20;1.83;;;1.83;;
5674;SDS011;2860;54.284;10.158;2022-11-18T13:03:51;1.80;;;1.80;;
5674;SDS011;2860;54.284;10.158;2022-11-18T13:06:24;1.67;;;1.67;;
5674;SDS011;2860;54.284;10.158;2022-11-18T13:09:03;5.35;;;1.88;;
5674;SDS011;2860;54.284;10.158;2022-11-18T13:11:32;2.05;;;2.05;;
5674;SDS011;2860;54.284;10.158;2022-11-18T13:14:12;1.75;;;1.75;;
5674;SDS011;2860;54.284;10.158;2022-11-18T13:17:22;1.13;;;1.13;;
5674;SDS011;2860;54.284;10.158;2022-11-18T13:20:26;1.95;;;1.40;;
5674;SDS011;2860;54.284;10.158;2022-11-18T13:25:43;2.22;;;2.13;;
5674;SDS011;2860;54.284;10.158;2022-11-18T13:30:44;1.70;;;1.70;;
5674;SDS011;2860;54.284;10.158;2022-11-18T13:33:18;1.98;;;1.88;;
5674;SDS011;2860;54.284;10.158;2022-11-18T13:35:43;2.08;;;1.88;;
5674;SDS011;2860;54.284;10.158;2022-11-18T13:38:17;3.22;;;1.80;;
5674;SDS011;2860;54.284;10.158;2022-11-18T13:40:48;2.38;;;2.15;;
5674;SDS011;2860;54.284;10.158;2022-11-18T13:43:28;1.63;;;1.63;;
5674;SDS011;2860;54.284;10.158;2022-11-18T13:45:56;1.60;;;1.60;;
5674;SDS011;2860;54.284;10.158;2022-11-18T13:48:28;2.97;;;2.22;;
5674;SDS011;2860;54.284;10.158;2022-11-18T13:50:55;2.45;;;2.28;;
5674;SDS011;2860;54.284;10.158;2022-11-18T13:53:29;2.47;;;1.67;;
5674;SDS011;2860;54.284;10.158;2022-11-18T13:56:14;1.88;;;1.77;;
5674;SDS011;2860;54.284;10.158;2022-11-18T13:58:41;2.47;;;2.45;;
5674;SDS011;2860;54.284;10.158;2022-11-18T14:01:12;3.13;;;2.92;;
5674;SDS011;2860;54.284;10.158;2022-11-18T14:06:30;2.70;;;2.60;;
5674;SDS011;2860;54.284;10.158;2022-11-18T14:11:44;2.58;;;2.42;;
5674;SDS011;2860;54.284;10.158;2022-11-18T14:14:29;2.28;;;2.28;;
5674;SDS011;2860;54.284;10.158;2022-11-18T14:17:47;2.30;;;2.20;;
5674;SDS011;2860;54.284;10.158;2022-11-18T14:19:55;1.77;;;1.77;;
5674;SDS011;2860;54.284;10.158;2022-11-18T14:22:23;2.28;;;2.17;;
5674;SDS011;2860;54.284;10.158;2022-11-18T14:25:02;2.15;;;2.05;;
5674;SDS011;2860;54.284;10.158;2022-11-18T14:35:47;2.22;;;2.13;;
5674;SDS011;2860;54.284;10.158;2022-11-18T14:40:58;2.63;;;2.63;;
5674;SDS011;2860;54.284;10.158;2022-11-18T14:43:25;2.60;;;2.40;;
5674;SDS011;2860;54.284;10.158;2022-11-18T14:45:52;2.17;;;2.17;;
5674;SDS011;2860;54.284;10.158;2022-11-18T14:48:21;1.70;;;1.70;;
5674;SDS011;2860;54.284;10.158;2022-11-18T14:50:47;1.83;;;1.83;;
5674;SDS011;2860;54.284;10.158;2022-11-18T14:53:13;1.70;;;1.70;;
5674;SDS011;2860;54.284;10.158;2022-11-18T14:55:39;3.15;;;2.20;;
5674;SDS011;2860;54.284;10.158;2022-11-18T14:58:07;1.92;;;1.92;;
5674;SDS011;2860;54.284;10.158;2022-11-18T15:00:38;5.32;;;2.47;;
5674;SDS011;2860;54.284;10.158;2022-11-18T15:03:04;2.75;;;2.65;;
5674;SDS011;2860;54.284;10.158;2022-11-18T15:05:30;2.33;;;2.22;;
5674;SDS011;2860;54.284;10.158;2022-11-18T15:07:55;2.35;;;2.25;;
5674;SDS011;2860;54.284;10.158;2022-11-18T15:10:21;2.03;;;2.00;;
5674;SDS011;2860;54.284;10.158;2022-11-18T15:12:46;2.58;;;2.22;;
5674;SDS011;2860;54.284;10.158;2022-11-18T15:15:12;2.15;;;2.05;;
5674;SDS011;2860;54.284;10.158;2022-11-18T15:17:37;2.80;;;2.70;;
5674;SDS011;2860;54.284;10.158;2022-11-18T15:20:03;2.50;;;2.50;;
5674;SDS011;2860;54.284;10.158;2022-11-18T15:22:30;3.42;;;3.30;;
5674;SDS011;2860;54.284;10.158;2022-11-18T15:24:56;2.30;;;2.22;;
5674;SDS011;2860;54.284;10.158;2022-11-18T15:27:22;3.17;;;3.08;;
5674;SDS011;2860;54.284;10.158;2022-11-18T15:29:53;3.65;;;3.33;;
5674;SDS011;2860;54.284;10.158;2022-11-18T15:32:18;3.13;;;2.70;;
5674;SDS011;2860;54.284;10.158;2022-11-18T15:34:44;3.20;;;3.05;;
5674;SDS011;2860;54.284;10.158;2022-11-18T15:37:10;3.10;;;3.00;;
5674;SDS011;2860;54.284;10.158;2022-11-18T15:39:36;3.17;;;2.97;;
5674;SDS011;2860;54.284;10.158;2022-11-18T15:42:02;3.20;;;3.10;;
5674;SDS011;2860;54.284;10.158;2022-11-18T15:44:27;6.72;;;3.38;;
5674;SDS011;2860;54.284;10.158;2022-11-18T15:46:53;5.85;;;5.55;;
5674;SDS011;2860;54.284;10.158;2022-11-18T15:49:19;4.05;;;3.85;;
5674;SDS011;2860;54.284;10.158;2022-11-18T15:51:44;10.85;;;8.93;;
5674;SDS011;2860;54.284;10.158;2022-11-18T15:54:10;8.10;;;7.25;;
5674;SDS011;2860;54.284;10.158;2022-11-18T15:56:36;10.75;;;5.88;;
5674;SDS011;2860;54.284;10.158;2022-11-18T15:59:12;6.35;;;5.82;;
5674;SDS011;2860;54.284;10.158;2022-11-18T16:01:42;5.22;;;4.72;;
5674;SDS011;2860;54.284;10.158;2022-11-18T16:04:10;5.22;;;4.82;;
5674;SDS011;2860;54.284;10.158;2022-11-18T16:06:37;7.40;;;5.03;;
5674;SDS011;2860;54.284;10.158;2022-11-18T16:09:03;6.57;;;5.10;;
5674;SDS011;2860;54.284;10.158;2022-11-18T16:11:30;4.75;;;4.55;;
5674;SDS011;2860;54.284;10.158;2022-11-18T16:14:15;4.60;;;4.30;;
5674;SDS011;2860;54.284;10.158;2022-11-18T16:16:43;5.85;;;5.35;;
5674;SDS011;2860;54.284;10.158;2022-11-18T16:19:10;4.75;;;4.35;;
5674;SDS011;2860;54.284;10.158;2022-11-18T16:21:38;3.92;;;3.50;;
5674;SDS011;2860;54.284;10.158;2022-11-18T16:24:07;4.45;;;4.25;;
5674;SDS011;2860;54.284;10.158;2022-11-18T16:26:35;5.03;;;4.75;;
5674;SDS011;2860;54.284;10.158;2022-11-18T16:29:01;4.93;;;4.63;;
5674;SDS011;2860;54.284;10.158;2022-11-18T16:31:28;5.25;;;4.25;;
5674;SDS011;2860;54.284;10.158;2022-11-18T16:34:14;3.75;;;3.55;;
5674;SDS011;2860;54.284;10.158;2022-11-18T16:36:42;3.08;;;2.97;;
5674;SDS011;2860;54.284;10.158;2022-11-18T16:39:10;3.60;;;3.30;;
5674;SDS011;2860;54.284;10.158;2022-11-18T16:41:50;3.40;;;3.30;;
5674;SDS011;2860;54.284;10.158;2022-11-18T16:44:16;4.05;;;3.85;;
5674;SDS011;2860;54.284;10.158;2022-11-18T16:46:50;3.33;;;3.20;;
5674;SDS011;2860;54.284;10.158;2022-11-18T16:49:18;2.97;;;2.83;;
5674;SDS011;2860;54.284;10.158;2022-11-18T16:51:45;4.00;;;3.80;;
5674;SDS011;2860;54.284;10.158;2022-11-18T16:54:14;5.28;;;4.95;;
5674;SDS011;2860;54.284;10.158;2022-11-18T16:56:44;5.15;;;4.50;;
5674;SDS011;2860;54.284;10.158;2022-11-18T16:59:12;7.28;;;6.57;;
5674;SDS011;2860;54.284;10.158;2022-11-18T17:01:39;7.30;;;6.72;;
5674;SDS011;2860;54.284;10.158;2022-11-18T17:04:05;8.68;;;7.88;;
5674;SDS011;2860;54.284;10.158;2022-11-18T17:06:31;9.65;;;8.70;;
5674;SDS011;2860;54.284;10.158;2022-11-18T17:08:57;8.70;;;7.72;;
5674;SDS011;2860;54.284;10.158;2022-11-18T17:11:23;10.50;;;9.50;;
5674;SDS011;2860;54.284;10.158;2022-11-18T17:13:49;8.07;;;7.47;;
5674;SDS011;2860;54.284;10.158;2022-11-18T17:16:18;11.40;;;8.48;;
5674;SDS011;2860;54.284;10.158;2022-11-18T17:18:45;10.52;;;9.55;;
5674;SDS011;2860;54.284;10.158;2022-11-18T17:21:12;13.13;;;10.10;;